CCU weather

Netaji Subhash Chandra Bose International Airport
Kolkata, West Bengal, India

Public forecast

Using degrees Celsius for public forecast. Weather courtesy of forecast.io.

Current aviation weather report (METAR) for Netaji Subhash Chandra Bose International Airport

Retrieved 2020/02/20 13:30 UTC (28 minutes ago):

VECC 201330Z 12004KT 3800 HZ NSC 26/18 Q1015 NOSIG

Aviation forecast (TAF) for Netaji Subhash Chandra Bose International Airport

Retrieved 2020/02/20 12:42 UTC (1 hour ago):

TAF VECC 201100Z 2012/2118 17005KT 3500 HZ FEW020 BECMG 2019/2021 2000 BR BECMG 2100/2102 00000KT 1000 BR SCT020 SCT100 BECMG 2103/2105 2500 HZ BECMG 3106/2108 16005KT 3500 HZ FEW020 BECMG 2116/2118 00000KT 2800 HZ